Aeroporto :







RITROVATECI SU...

 
LOGIN :

Iscrizione | Disclaimer

   EN    FR    IT 

 









Sommario :    VFR   VFR Marginale   IFR   IFR Intensivo   IFR Molto Intensivo
Visibilità : 
Base nubi : 
>= 8 km
>= 3000ft
5 / 8 km
1000 / 3000 ft
1500m / 5 km
500 / 1000 ft
800 / 1500m
200 / 500 ft
< 800m
< 200 ft
Simboli :   Temporali  Nebbia  Neve Forte  Precipitazioni Forti  Vento > 20 kt






- Altitudine del aeroporto : 534 ft
- Codice IATA : PQI


KPQI - Northern Maine Regional Arpt At Presque Isle

ULTIMO METAR :
  • 140556Z AUTO 00000KT 10SM CLR M18/M21 A3034 RMK AO2 SLP314 T11831206 11089 21183 51026

METARs OBSOLETI :
  • 140456Z AUTO 00000KT 10SM CLR M17/M18 A3032 RMK AO2 SLP307 T11671183 410441167
  • 140356Z AUTO 00000KT 10SM CLR M14/M16 A3029 RMK AO2 SLP297 T11441161

TAF KPQI
Valido dal 14 a 06 ore il 15 a 06 ore UTC


140520Z 1406/1506 00000KT P6SM SCT250
FM141200 VRB02KT P6SM BKN090 OVC120
FM141600 17005KT P6SM VCSH OVC050
FM142100 18008KT 5SM -SHSN OVC025
FM150000 16005KT P6SM BKN030 OVC050



MetMap, La meteo Aeronautica in un colpo d'occhio ! - Copyright ORBIFLY Dicembre 2007 - Disclaimer

ORBIFLY MET'MAP TEAM :

Programmazione e sviluppo : Alexandra Zaïnal
Concezione e sviluppo : Baudouin d'Aumeries
Co-Programmazione e sviluppo : Marc-Olivier Méhu
Supporto tecnico e logistico : Manuel Goepfert
Aiuto per la traduzione : Arnaldo La Scala

Contatto : metmap@orbifly.com




FONTI E CREDITI :

   NOAA